Back to Top

Language: 

My Weather Underground Personal Weather Station Historical Data with Graphs...

Delerius Weather Station Historical Data
Daily Summary for October 24, 2017 Units:  English    Metric   Both
« Previous Day
Next Day »
Daily Weekly Monthly Yearly Custom
  High: Low: Average:
Temperature: 65.8 °F 52.9 °F 58.9 °F
Dew Point: 59.9 °F 50.0 °F 55.5 °F
Humidity: 96 % 80 % 89 %
Wind Speed: 20.0 mph 0.0 mph 8.1 mph
Wind Gust: 32.0 mph - -
Wind:- - SW
Pressure: 29.96 in 29.83 in -
Precipitation: 0.10 in    
Historical Graphs
 
 
Tabular Data for October 24, 2017
Time Temperature Dew Point Pressure Wind Wind Speed Wind Gust Humidity Rainfall Rate (Hourly) solar Conditions
00:03 57.7 °F 54.2 °F 29.96 in WSW 5.0 mph 9.0 mph 88 % 0.00 in 0 W/m2
00:08 57.6 °F 54.0 °F 29.95 in WSW 4.0 mph 7.0 mph 88 % 0.00 in 0 W/m2
00:13 57.4 °F 53.9 °F 29.95 in WSW 5.0 mph 9.0 mph 88 % 0.00 in 0 W/m2
00:18 57.4 °F 53.9 °F 29.95 in WSW 4.0 mph 6.0 mph 88 % 0.00 in 0 W/m2
00:23 57.0 °F 53.5 °F 29.95 in WSW 5.0 mph 8.0 mph 88 % 0.00 in 0 W/m2
00:28 57.0 °F 53.5 °F 29.95 in West 5.0 mph 7.0 mph 88 % 0.00 in 0 W/m2
00:33 56.8 °F 53.3 °F 29.95 in WSW 5.0 mph 9.0 mph 88 % 0.00 in 0 W/m2
00:38 56.8 °F 53.3 °F 29.95 in WSW 5.0 mph 8.0 mph 88 % 0.00 in 0 W/m2
00:43 56.8 °F 53.3 °F 29.95 in WSW 8.0 mph 13.0 mph 88 % 0.00 in 0 W/m2
00:48 56.8 °F 53.3 °F 29.95 in West 7.0 mph 10.0 mph 88 % 0.00 in 0 W/m2
00:53 56.8 °F 53.3 °F 29.95 in West 6.0 mph 11.0 mph 88 % 0.00 in 0 W/m2
00:58 56.7 °F 53.1 °F 29.95 in West 6.0 mph 9.0 mph 88 % 0.00 in 0 W/m2
01:03 56.5 °F 52.7 °F 29.95 in West 4.0 mph 7.0 mph 87 % 0.00 in 0 W/m2
01:08 56.5 °F 52.7 °F 29.95 in West 4.0 mph 8.0 mph 87 % 0.00 in 0 W/m2
01:13 56.1 °F 52.3 °F 29.95 in West 3.0 mph 6.0 mph 87 % 0.00 in 0 W/m2
01:18 55.9 °F 52.4 °F 29.95 in West 3.0 mph 5.0 mph 88 % 0.00 in 0 W/m2
01:23 55.9 °F 52.4 °F 29.95 in WSW 3.0 mph 6.0 mph 88 % 0.00 in 0 W/m2
01:28 55.8 °F 52.3 °F 29.95 in WSW 5.0 mph 8.0 mph 88 % 0.00 in 0 W/m2
01:33 55.6 °F 52.1 °F 29.95 in WSW 4.0 mph 7.0 mph 88 % 0.00 in 0 W/m2
01:38 55.6 °F 52.1 °F 29.95 in WSW 5.0 mph 9.0 mph 88 % 0.00 in 0 W/m2
01:43 55.4 °F 51.9 °F 29.95 in WSW 6.0 mph 8.0 mph 88 % 0.00 in 0 W/m2
01:48 55.2 °F 51.7 °F 29.94 in WSW 5.0 mph 7.0 mph 88 % 0.00 in 0 W/m2
01:53 55.2 °F 51.7 °F 29.94 in WSW 4.0 mph 6.0 mph 88 % 0.00 in 0 W/m2
01:58 55.0 °F 51.5 °F 29.94 in SW 3.0 mph 6.0 mph 88 % 0.00 in 0 W/m2
02:03 55.0 °F 51.5 °F 29.94 in SW 2.0 mph 4.0 mph 88 % 0.00 in 0 W/m2
02:08 54.9 °F 51.1 °F 29.94 in WSW 3.0 mph 6.0 mph 87 % 0.00 in 0 W/m2
02:13 54.9 °F 51.1 °F 29.94 in WSW 1.0 mph 4.0 mph 87 % 0.00 in 0 W/m2
02:18 54.9 °F 51.1 °F 29.94 in WSW 2.0 mph 8.0 mph 87 % 0.00 in 0 W/m2
02:23 54.9 °F 51.1 °F 29.94 in WSW 2.0 mph 6.0 mph 87 % 0.00 in 0 W/m2
02:24 54.7 °F 50.9 °F 29.94 in WSW 2.0 mph 6.0 mph 87 % 0.00 in 0 W/m2
02:29 54.7 °F 50.9 °F 29.95 in Calm   2.0 mph 87 % 0.00 in 0 W/m2
02:34 54.7 °F 50.9 °F 29.95 in West 2.0 mph 5.0 mph 87 % 0.00 in 0 W/m2
02:44 54.3 °F 50.5 °F 29.95 in Calm     87 % 0.00 in 0 W/m2
02:49 54.1 °F 50.4 °F 29.95 in Calm   1.0 mph 87 % 0.00 in 0 W/m2
02:54 54.0 °F 50.5 °F 29.95 in Calm     88 % 0.00 in 0 W/m2
02:59 53.8 °F 50.3 °F 29.94 in Calm   1.0 mph 88 % 0.00 in 0 W/m2
03:04 53.4 °F 50.0 °F 29.94 in Calm   2.0 mph 88 % 0.00 in 0 W/m2
03:09 53.2 °F 50.1 °F 29.95 in East 1.0 mph 4.0 mph 89 % 0.00 in 0 W/m2
03:14 53.2 °F 50.1 °F 29.95 in South 1.0 mph 4.0 mph 89 % 0.00 in 0 W/m2
03:19 53.1 °F 50.2 °F 29.95 in Calm   2.0 mph 90 % 0.00 in 0 W/m2
03:24 53.1 °F 50.2 °F 29.95 in Calm     90 % 0.00 in 0 W/m2
03:29 52.9 °F 50.0 °F 29.96 in SSW 1.0 mph 4.0 mph 90 % 0.00 in 0 W/m2
03:34 52.9 °F 50.0 °F 29.95 in Calm   2.0 mph 90 % 0.00 in 0 W/m2
03:39 52.9 °F 50.3 °F 29.95 in SW 1.0 mph 4.0 mph 91 % 0.00 in 0 W/m2
03:44 52.9 °F 50.0 °F 29.95 in Calm     90 % 0.00 in 0 W/m2
03:49 52.9 °F 50.3 °F 29.94 in SSW 1.0 mph 5.0 mph 91 % 0.00 in 0 W/m2
03:54 53.1 °F 50.5 °F 29.95 in Calm   3.0 mph 91 % 0.00 in 0 W/m2
03:59 53.2 °F 50.7 °F 29.94 in ESE 5.0 mph 7.0 mph 91 % 0.00 in 0 W/m2
04:04 53.4 °F 50.9 °F 29.94 in East 4.0 mph 6.0 mph 91 % 0.00 in 0 W/m2
04:09 53.6 °F 51.0 °F 29.94 in East 4.0 mph 8.0 mph 91 % 0.00 in 0 W/m2
04:15 53.6 °F 51.0 °F 29.93 in ESE 5.0 mph 8.0 mph 91 % 0.00 in 0 W/m2
04:20 53.6 °F 51.0 °F 29.93 in SE 5.0 mph 8.0 mph 91 % 0.00 in 0 W/m2
04:23 53.6 °F 51.0 °F 29.93 in SE 5.0 mph 7.0 mph 91 % 0.00 in 0 W/m2
04:31 53.6 °F 51.0 °F 29.92 in SE 5.0 mph 6.0 mph 91 % 0.00 in 0 W/m2
04:36 53.6 °F 51.0 °F 29.92 in ESE 6.0 mph 7.0 mph 91 % 0.00 in 0 W/m2
04:41 53.6 °F 51.0 °F 29.92 in SE 6.0 mph 8.0 mph 91 % 0.00 in 0 W/m2
04:46 53.6 °F 51.0 °F 29.92 in ESE 3.0 mph 5.0 mph 91 % 0.00 in 0 W/m2
04:51 53.4 °F 50.9 °F 29.92 in SE 2.0 mph 5.0 mph 91 % 0.00 in 0 W/m2
04:56 53.4 °F 50.9 °F 29.92 in SE 4.0 mph 5.0 mph 91 % 0.00 in 0 W/m2
05:01 53.4 °F 50.9 °F 29.92 in SE 1.0 mph 2.0 mph 91 % 0.00 in 0 W/m2
05:06 53.2 °F 50.7 °F 29.91 in Calm   2.0 mph 91 % 0.00 in 0 W/m2
05:11 53.1 °F 50.5 °F 29.90 in Calm   2.0 mph 91 % 0.00 in 0 W/m2
05:16 52.9 °F 50.6 °F 29.91 in SSE 1.0 mph 4.0 mph 92 % 0.00 in 0 W/m2
05:21 52.9 °F 50.6 °F 29.92 in SW 2.0 mph 7.0 mph 92 % 0.00 in 0 W/m2
05:26 53.1 °F 50.8 °F 29.92 in SW 2.0 mph 6.0 mph 92 % 0.00 in 0 W/m2
05:31 53.2 °F 51.0 °F 29.92 in SSW 6.0 mph 13.0 mph 92 % 0.00 in 0 W/m2
05:32 53.2 °F 51.0 °F 29.91 in SSW 9.0 mph 13.0 mph 92 % 0.00 in 0 W/m2
05:37 53.8 °F 51.5 °F 29.92 in SSW 9.0 mph 13.0 mph 92 % 0.00 in 0 W/m2
05:42 54.1 °F 51.9 °F 29.93 in SSW 10.0 mph 14.0 mph 92 % 0.00 in 0 W/m2
05:47 54.5 °F 51.9 °F 29.92 in SSW 5.0 mph 8.0 mph 91 % 0.00 in 0 W/m2
05:52 54.7 °F 51.8 °F 29.92 in SSW 4.0 mph 7.0 mph 90 % 0.00 in 0 W/m2
05:57 54.7 °F 51.8 °F 29.92 in South 5.0 mph 8.0 mph 90 % 0.00 in 0 W/m2
06:02 54.7 °F 51.8 °F 29.92 in South 2.0 mph 6.0 mph 90 % 0.00 in 0 W/m2
06:07 54.7 °F 51.8 °F 29.92 in Calm   2.0 mph 90 % 0.00 in 0 W/m2
06:12 54.9 °F 52.0 °F 29.92 in SW 1.0 mph 5.0 mph 90 % 0.00 in 0 W/m2
06:17 54.9 °F 52.0 °F 29.92 in Calm   4.0 mph 90 % 0.00 in 0 W/m2
06:21 54.9 °F 52.0 °F 29.92 in Calm   4.0 mph 90 % 0.00 in 0 W/m2
06:27 54.9 °F 52.0 °F 29.91 in Calm   1.0 mph 90 % 0.00 in 0 W/m2
06:32 54.9 °F 52.0 °F 29.91 in Calm   4.0 mph 90 % 0.00 in 0 W/m2
06:37 54.7 °F 51.8 °F 29.91 in ESE 1.0 mph 6.0 mph 90 % 0.01 in 0 W/m2
06:42 54.7 °F 52.1 °F 29.90 in SE 1.0 mph 4.0 mph 91 % 0.01 in 0 W/m2
06:47 54.7 °F 52.1 °F 29.90 in SE 1.0 mph 4.0 mph 91 % 0.01 in 0 W/m2
06:52 54.7 °F 52.1 °F 29.89 in SSW 4.0 mph 8.0 mph 91 % 0.01 in 0 W/m2
06:57 54.7 °F 52.1 °F 29.89 in SSW 3.0 mph 7.0 mph 91 % 0.01 in 0 W/m2
07:02 54.7 °F 52.1 °F 29.88 in SW 2.0 mph 5.0 mph 91 % 0.01 in 0 W/m2
07:07 54.7 °F 52.4 °F 29.88 in SSW 5.0 mph 8.0 mph 92 % 0.01 in 0 W/m2
07:12 54.7 °F 52.4 °F 29.88 in SW 6.0 mph 10.0 mph 92 % 0.01 in 0 W/m2
07:17 54.7 °F 52.4 °F 29.88 in SSW 4.0 mph 9.0 mph 92 % 0.01 in 0 W/m2
07:22 54.7 °F 52.4 °F 29.89 in SW 5.0 mph 7.0 mph 92 % 0.01 in 0 W/m2
07:27 54.7 °F 52.4 °F 29.88 in South 6.0 mph 8.0 mph 92 % 0.02 in 0 W/m2
07:32 54.7 °F 52.7 °F 29.88 in SSW 7.0 mph 12.0 mph 93 % 0.03 in 0 W/m2
07:37 54.5 °F 52.5 °F 29.87 in South 7.0 mph 13.0 mph 93 % 0.03 in 0 W/m2
07:42 54.3 °F 52.3 °F 29.87 in South 6.0 mph 10.0 mph 93 % 0.03 in 0 W/m2
07:47 54.3 °F 52.3 °F 29.87 in South 8.0 mph 15.0 mph 93 % 0.03 in 0 W/m2
07:52 54.3 °F 52.6 °F 29.86 in SSW 7.0 mph 13.0 mph 94 % 0.03 in 0 W/m2
07:57 54.3 °F 52.6 °F 29.86 in South 7.0 mph 10.0 mph 94 % 0.03 in 0 W/m2
08:02 54.3 °F 52.6 °F 29.86 in South 8.0 mph 16.0 mph 94 % 0.03 in 0 W/m2
08:07 54.5 °F 52.8 °F 29.86 in SSW 9.0 mph 13.0 mph 94 % 0.03 in 0 W/m2
08:12 54.5 °F 52.8 °F 29.86 in SSW 9.0 mph 15.0 mph 94 % 0.05 in 0 W/m2
08:17 54.5 °F 52.8 °F 29.87 in South 8.0 mph 12.0 mph 94 % 0.05 in 0 W/m2
08:22 54.7 °F 53.0 °F 29.87 in SSW 9.0 mph 16.0 mph 94 % 0.06 in 7 W/m2
08:27 54.7 °F 53.3 °F 29.86 in SSW 9.0 mph 13.0 mph 95 % 0.06 in 7 W/m2
08:33 54.9 °F 53.5 °F 29.86 in SSW 7.0 mph 10.0 mph 95 % 0.06 in 11 W/m2
08:38 54.9 °F 53.5 °F 29.86 in SW 9.0 mph 13.0 mph 95 % 0.05 in 19 W/m2
08:43 55.0 °F 53.6 °F 29.86 in SW 7.0 mph 12.0 mph 95 % 0.05 in 23 W/m2
08:48 55.2 °F 53.8 °F 29.86 in SW 9.0 mph 13.0 mph 95 % 0.05 in 28 W/m2
08:53 55.6 °F 54.2 °F 29.86 in SW 7.0 mph 11.0 mph 95 % 0.05 in 18 W/m2
08:58 55.8 °F 54.3 °F 29.86 in SW 7.0 mph 11.0 mph 95 % 0.05 in 16 W/m2
09:03 55.8 °F 54.3 °F 29.86 in SW 6.0 mph 9.0 mph 95 % 0.05 in 28 W/m2
09:08 56.1 °F 55.0 °F 29.85 in SW 8.0 mph 11.0 mph 96 % 0.04 in 35 W/m2
09:13 56.5 °F 55.1 °F 29.85 in SSW 8.0 mph 14.0 mph 95 % 0.03 in 37 W/m2
09:18 56.7 °F 55.2 °F 29.85 in SSW 8.0 mph 12.0 mph 95 % 0.03 in 42 W/m2
09:23 56.8 °F 55.4 °F 29.85 in SW 7.0 mph 13.0 mph 95 % 0.01 in 35 W/m2
09:28 57.2 °F 55.8 °F 29.85 in SW 7.0 mph 10.0 mph 95 % 0.01 in 30 W/m2
09:33 57.6 °F 56.1 °F 29.85 in SW 8.0 mph 11.0 mph 95 % 0.00 in 25 W/m2
09:38 57.7 °F 56.3 °F 29.85 in SSW 8.0 mph 14.0 mph 95 % 0.02 in 28 W/m2
09:43 58.3 °F 57.1 °F 29.85 in SSW 9.0 mph 14.0 mph 96 % 0.02 in 25 W/m2
09:48 58.6 °F 57.5 °F 29.85 in SW 11.0 mph 15.0 mph 96 % 0.02 in 25 W/m2
09:53 59.0 °F 57.9 °F 29.85 in SW 10.0 mph 16.0 mph 96 % 0.02 in 30 W/m2
09:58 59.2 °F 58.0 °F 29.85 in SW 12.0 mph 19.0 mph 96 % 0.02 in 30 W/m2
10:03 59.4 °F 57.9 °F 29.85 in SW 12.0 mph 19.0 mph 95 % 0.02 in 21 W/m2
10:08 59.5 °F 58.1 °F 29.85 in SW 9.0 mph 13.0 mph 95 % 0.02 in 18 W/m2
10:13 59.7 °F 58.3 °F 29.85 in SW 13.0 mph 20.0 mph 95 % 0.02 in 18 W/m2
10:18 60.1 °F 58.3 °F 29.85 in SW 10.0 mph 16.0 mph 94 % 0.02 in 21 W/m2
10:23 60.1 °F 58.3 °F 29.84 in SW 9.0 mph 14.0 mph 94 % 0.02 in 44 W/m2
10:28 60.3 °F 58.5 °F 29.84 in SSW 13.0 mph 20.0 mph 94 % 0.02 in 58 W/m2
10:34 60.4 °F 58.7 °F 29.84 in SW 13.0 mph 20.0 mph 94 % 0.01 in 90 W/m2
10:39 60.6 °F 58.6 °F 29.84 in SW 16.0 mph 22.0 mph 93 % 0.00 in 125 W/m2
10:40 60.6 °F 58.9 °F 29.84 in SW 14.0 mph 22.0 mph 94 % 0.00 in 84 W/m2
10:45 60.8 °F 58.8 °F 29.84 in SW 12.0 mph 20.0 mph 93 % 0.00 in 186 W/m2
10:50 61.2 °F 59.1 °F 29.83 in SW 14.0 mph 19.0 mph 93 % 0.00 in 429 W/m2
10:55 61.5 °F 59.5 °F 29.83 in SW 14.0 mph 20.0 mph 93 % 0.00 in 178 W/m2
11:00 61.9 °F 59.8 °F 29.83 in SW 13.0 mph 22.0 mph 93 % 0.00 in 204 W/m2
11:05 62.1 °F 59.7 °F 29.83 in SW 17.0 mph 24.0 mph 92 % 0.00 in 178 W/m2
11:10 62.2 °F 59.6 °F 29.83 in WSW 17.0 mph 27.0 mph 91 % 0.00 in 153 W/m2
11:15 62.4 °F 59.8 °F 29.83 in WSW 13.0 mph 21.0 mph 91 % 0.00 in 70 W/m2
11:20 62.4 °F 59.8 °F 29.83 in WSW 16.0 mph 23.0 mph 91 % 0.00 in 211 W/m2
11:25 62.4 °F 59.4 °F 29.83 in WSW 16.0 mph 23.0 mph 90 % 0.00 in 104 W/m2
11:30 62.8 °F 59.8 °F 29.83 in WSW 17.0 mph 25.0 mph 90 % 0.00 in 123 W/m2
11:35 63.0 °F 59.7 °F 29.83 in WSW 15.0 mph 25.0 mph 89 % 0.00 in 158 W/m2
11:40 63.1 °F 59.8 °F 29.83 in WSW 19.0 mph 32.0 mph 89 % 0.00 in 158 W/m2
11:45 63.5 °F 59.9 °F 29.83 in WSW 20.0 mph 29.0 mph 88 % 0.00 in 151 W/m2
11:50 63.7 °F 59.7 °F 29.83 in WSW 20.0 mph 28.0 mph 87 % 0.00 in 123 W/m2
11:55 63.9 °F 59.6 °F 29.83 in WSW 17.0 mph 26.0 mph 86 % 0.00 in 241 W/m2
12:00 64.0 °F 59.8 °F 29.83 in WSW 14.0 mph 25.0 mph 86 % 0.00 in 179 W/m2
12:05 64.0 °F 59.8 °F 29.83 in WSW 14.0 mph 21.0 mph 86 % 0.00 in 105 W/m2
12:10 64.0 °F 59.4 °F 29.84 in WSW 15.0 mph 24.0 mph 85 % 0.00 in 81 W/m2
12:15 63.9 °F 59.3 °F 29.83 in WSW 14.0 mph 24.0 mph 85 % 0.00 in 153 W/m2
12:20 63.9 °F 59.3 °F 29.84 in WSW 17.0 mph 26.0 mph 85 % 0.00 in 149 W/m2
12:25 64.0 °F 59.4 °F 29.83 in WSW 19.0 mph 27.0 mph 85 % 0.00 in 148 W/m2
12:30 64.0 °F 59.4 °F 29.83 in WSW 18.0 mph 30.0 mph 85 % 0.00 in 260 W/m2
12:35 64.2 °F 59.3 °F 29.84 in WSW 18.0 mph 27.0 mph 84 % 0.00 in 123 W/m2
12:37 64.2 °F 59.3 °F 29.83 in WSW 18.0 mph 24.0 mph 84 % 0.00 in 141 W/m2
12:42 64.2 °F 59.3 °F 29.83 in WSW 18.0 mph 26.0 mph 84 % 0.00 in 130 W/m2
12:47 64.2 °F 59.6 °F 29.83 in WSW 13.0 mph 24.0 mph 85 % 0.00 in 123 W/m2
12:52 64.2 °F 59.3 °F 29.84 in WSW 15.0 mph 26.0 mph 84 % 0.00 in 109 W/m2
12:57 64.2 °F 59.3 °F 29.83 in WSW 18.0 mph 28.0 mph 84 % 0.00 in 148 W/m2
13:02 64.4 °F 59.5 °F 29.84 in WSW 17.0 mph 28.0 mph 84 % 0.00 in 139 W/m2
13:07 64.6 °F 59.3 °F 29.84 in West 16.0 mph 24.0 mph 83 % 0.00 in 285 W/m2
13:12 64.9 °F 59.3 °F 29.83 in West 20.0 mph 28.0 mph 82 % 0.00 in 359 W/m2
13:17 65.1 °F 59.5 °F 29.84 in WSW 18.0 mph 31.0 mph 82 % 0.00 in 325 W/m2
13:22 65.1 °F 59.1 °F 29.84 in WSW 18.0 mph 27.0 mph 81 % 0.00 in 232 W/m2
13:27 65.5 °F 59.5 °F 29.84 in WSW 20.0 mph 26.0 mph 81 % 0.00 in 417 W/m2
13:32 65.7 °F 59.7 °F 29.84 in WSW 18.0 mph 29.0 mph 81 % 0.00 in 408 W/m2
13:37 65.8 °F 59.5 °F 29.83 in WSW 17.0 mph 29.0 mph 80 % 0.00 in 234 W/m2
13:42 65.8 °F 59.5 °F 29.84 in WSW 17.0 mph 27.0 mph 80 % 0.00 in 255 W/m2
13:47 65.7 °F 59.3 °F 29.84 in WSW 16.0 mph 27.0 mph 80 % 0.00 in 381 W/m2
13:52 65.5 °F 59.1 °F 29.84 in WSW 20.0 mph 31.0 mph 80 % 0.00 in 199 W/m2
13:57 65.1 °F 59.1 °F 29.84 in WSW 15.0 mph 26.0 mph 81 % 0.00 in 169 W/m2
14:02 64.9 °F 59.3 °F 29.84 in WSW 14.0 mph 21.0 mph 82 % 0.00 in 206 W/m2
14:07 64.9 °F 59.3 °F 29.84 in West 14.0 mph 23.0 mph 82 % 0.00 in 176 W/m2
14:12 64.8 °F 59.1 °F 29.85 in WSW 18.0 mph 31.0 mph 82 % 0.00 in 176 W/m2
14:17 64.2 °F 59.3 °F 29.85 in WSW 18.0 mph 28.0 mph 84 % 0.00 in 192 W/m2
14:22 64.0 °F 59.4 °F 29.86 in West 15.0 mph 24.0 mph 85 % 0.00 in 176 W/m2
14:27 63.9 °F 59.3 °F 29.86 in WSW 19.0 mph 24.0 mph 85 % 0.00 in 165 W/m2
14:32 63.1 °F 59.5 °F 29.86 in WSW 15.0 mph 21.0 mph 88 % 0.00 in 155 W/m2
14:37 62.8 °F 59.2 °F 29.87 in WSW 19.0 mph 27.0 mph 88 % 0.00 in 141 W/m2
14:42 62.6 °F 58.7 °F 29.87 in West 15.0 mph 24.0 mph 87 % 0.00 in 192 W/m2
14:47 62.8 °F 58.5 °F 29.87 in West 17.0 mph 25.0 mph 86 % 0.00 in 178 W/m2
14:51 63.0 °F 58.7 °F 29.87 in WSW 13.0 mph 19.0 mph 86 % 0.00 in 345 W/m2
14:56 63.1 °F 58.6 °F 29.87 in West 13.0 mph 25.0 mph 85 % 0.00 in 186 W/m2
15:01 63.1 °F 58.6 °F 29.87 in WSW 16.0 mph 25.0 mph 85 % 0.00 in 195 W/m2
15:06 63.3 °F 58.7 °F 29.87 in West 12.0 mph 22.0 mph 85 % 0.00 in 292 W/m2
15:11 63.5 °F 58.9 °F 29.88 in WSW 14.0 mph 20.0 mph 85 % 0.00 in 207 W/m2
15:16 63.7 °F 58.8 °F 29.88 in West 14.0 mph 20.0 mph 84 % 0.00 in 243 W/m2
15:17 63.7 °F 58.8 °F 29.88 in WSW 14.0 mph 20.0 mph 84 % 0.00 in 243 W/m2
15:22 63.5 °F 58.6 °F 29.87 in WSW 12.0 mph 19.0 mph 84 % 0.00 in 113 W/m2
15:27 63.3 °F 58.4 °F 29.86 in WSW 12.0 mph 20.0 mph 84 % 0.00 in 127 W/m2
15:32 63.3 °F 58.4 °F 29.87 in WSW 13.0 mph 26.0 mph 84 % 0.00 in 98 W/m2
15:37 63.3 °F 58.4 °F 29.87 in WSW 14.0 mph 26.0 mph 84 % 0.00 in 250 W/m2
15:42 63.5 °F 58.2 °F 29.87 in WSW 11.0 mph 19.0 mph 83 % 0.00 in 67 W/m2
15:47 63.3 °F 58.1 °F 29.88 in WSW 17.0 mph 22.0 mph 83 % 0.00 in 83 W/m2
15:52 63.3 °F 58.1 °F 29.88 in WSW 12.0 mph 21.0 mph 83 % 0.00 in 76 W/m2
15:57 63.1 °F 57.9 °F 29.88 in WSW 13.0 mph 22.0 mph 83 % 0.00 in 77 W/m2
16:02 63.1 °F 57.9 °F 29.88 in WSW 12.0 mph 20.0 mph 83 % 0.00 in 76 W/m2
16:07 63.0 °F 57.4 °F 29.88 in WSW 15.0 mph 28.0 mph 82 % 0.00 in 62 W/m2
16:12 63.0 °F 57.4 °F 29.87 in WSW 11.0 mph 20.0 mph 82 % 0.00 in 125 W/m2
16:17 62.8 °F 57.2 °F 29.87 in WSW 11.0 mph 19.0 mph 82 % 0.00 in 132 W/m2
16:22 62.8 °F 57.5 °F 29.87 in WSW 11.0 mph 15.0 mph 83 % 0.00 in 63 W/m2
16:27 62.8 °F 57.5 °F 29.88 in WSW 11.0 mph 15.0 mph 83 % 0.00 in 47 W/m2
16:32 62.6 °F 57.4 °F 29.89 in WSW 11.0 mph 20.0 mph 83 % 0.00 in 72 W/m2
16:37 62.6 °F 57.4 °F 29.89 in WSW 10.0 mph 16.0 mph 83 % 0.00 in 58 W/m2
16:42 62.6 °F 57.0 °F 29.89 in WSW 11.0 mph 18.0 mph 82 % 0.00 in 46 W/m2
16:47 62.6 °F 57.0 °F 29.89 in WSW 11.0 mph 16.0 mph 82 % 0.00 in 32 W/m2
16:52 62.4 °F 56.5 °F 29.89 in WSW 13.0 mph 23.0 mph 81 % 0.00 in 30 W/m2
16:57 62.4 °F 56.5 °F 29.89 in WSW 13.0 mph 19.0 mph 81 % 0.00 in 28 W/m2
17:03 62.2 °F 56.3 °F 29.90 in WSW 13.0 mph 21.0 mph 81 % 0.00 in 23 W/m2
17:07 62.2 °F 56.7 °F 29.90 in WSW 13.0 mph 19.0 mph 82 % 0.00 in 23 W/m2
17:13 62.1 °F 56.5 °F 29.90 in West 9.0 mph 15.0 mph 82 % 0.00 in 33 W/m2
17:18 62.1 °F 56.8 °F 29.90 in WSW 8.0 mph 13.0 mph 83 % 0.00 in 25 W/m2
17:23 61.9 °F 56.7 °F 29.90 in WSW 6.0 mph 9.0 mph 83 % 0.00 in 18 W/m2
17:28 61.9 °F 56.7 °F 29.90 in West 7.0 mph 13.0 mph 83 % 0.00 in 16 W/m2
17:33 61.7 °F 56.5 °F 29.91 in West 7.0 mph 12.0 mph 83 % 0.00 in 11 W/m2
17:38 61.5 °F 56.0 °F 29.91 in WSW 9.0 mph 12.0 mph 82 % 0.00 in 9 W/m2
17:43 61.5 °F 55.6 °F 29.91 in WSW 8.0 mph 12.0 mph 81 % 0.00 in 7 W/m2
17:48 61.5 °F 55.6 °F 29.91 in WSW 9.0 mph 19.0 mph 81 % 0.00 in 0 W/m2
17:53 61.3 °F 55.5 °F 29.91 in WSW 8.0 mph 15.0 mph 81 % 0.00 in 0 W/m2
17:58 61.3 °F 55.8 °F 29.91 in WSW 8.0 mph 13.0 mph 82 % 0.00 in 0 W/m2
18:03 61.3 °F 55.8 °F 29.91 in WSW 8.0 mph 12.0 mph 82 % 0.00 in 0 W/m2
18:08 61.3 °F 55.8 °F 29.91 in WSW 4.0 mph 7.0 mph 82 % 0.00 in 0 W/m2
18:13 61.2 °F 55.6 °F 29.91 in SW 7.0 mph 9.0 mph 82 % 0.00 in 0 W/m2
18:18 61.0 °F 55.8 °F 29.91 in WSW 5.0 mph 8.0 mph 83 % 0.00 in 0 W/m2
18:23 61.0 °F 55.8 °F 29.91 in SW 6.0 mph 10.0 mph 83 % 0.00 in 0 W/m2
18:28 61.0 °F 55.8 °F 29.91 in WSW 5.0 mph 8.0 mph 83 % 0.00 in 0 W/m2
18:33 61.0 °F 56.1 °F 29.91 in WSW 6.0 mph 10.0 mph 84 % 0.00 in 0 W/m2
18:38 61.0 °F 56.1 °F 29.91 in SW 7.0 mph 10.0 mph 84 % 0.00 in 0 W/m2
18:43 61.0 °F 56.4 °F 29.90 in SSW 8.0 mph 11.0 mph 85 % 0.00 in 0 W/m2
18:48 61.0 °F 56.4 °F 29.90 in SSW 8.0 mph 13.0 mph 85 % 0.00 in 0 W/m2
18:53 60.8 °F 56.6 °F 29.91 in SW 6.0 mph 12.0 mph 86 % 0.00 in 0 W/m2
18:58 60.6 °F 56.7 °F 29.90 in SW 6.0 mph 10.0 mph 87 % 0.00 in 0 W/m2
19:03 60.4 °F 56.6 °F 29.91 in SW 5.0 mph 8.0 mph 87 % 0.00 in 0 W/m2
19:08 60.3 °F 56.7 °F 29.91 in SW 6.0 mph 10.0 mph 88 % 0.00 in 0 W/m2
19:13 60.3 °F 57.0 °F 29.90 in SW 2.0 mph 6.0 mph 89 % 0.00 in 0 W/m2
19:18 60.1 °F 56.8 °F 29.90 in WSW 2.0 mph 4.0 mph 89 % 0.00 in 0 W/m2
19:23 60.1 °F 56.8 °F 29.90 in Calm   1.0 mph 89 % 0.00 in 0 W/m2
19:28 59.9 °F 57.0 °F 29.90 in Calm     90 % 0.00 in 0 W/m2
19:33 59.9 °F 57.0 °F 29.90 in Calm   1.0 mph 90 % 0.00 in 0 W/m2
19:38 59.7 °F 56.8 °F 29.89 in South 1.0 mph 3.0 mph 90 % 0.00 in 0 W/m2
19:43 59.7 °F 56.8 °F 29.89 in SSW 1.0 mph 2.0 mph 90 % 0.00 in 0 W/m2
19:48 59.7 °F 57.1 °F 29.89 in SSW 1.0 mph 3.0 mph 91 % 0.00 in 0 W/m2
19:53 59.5 °F 56.9 °F 29.88 in Calm     91 % 0.00 in 0 W/m2
19:58 59.5 °F 56.9 °F 29.89 in SSW 2.0 mph 4.0 mph 91 % 0.00 in 0 W/m2
20:03 59.5 °F 56.9 °F 29.89 in SSW 3.0 mph 6.0 mph 91 % 0.00 in 0 W/m2
20:08 59.5 °F 56.9 °F 29.88 in SW 3.0 mph 5.0 mph 91 % 0.00 in 0 W/m2
20:13 59.5 °F 56.9 °F 29.88 in SW 5.0 mph 8.0 mph 91 % 0.00 in 0 W/m2
20:18 59.5 °F 56.9 °F 29.88 in SSW 7.0 mph 9.0 mph 91 % 0.00 in 0 W/m2
20:23 59.5 °F 56.9 °F 29.88 in SSW 6.0 mph 11.0 mph 91 % 0.00 in 0 W/m2
20:29 59.7 °F 57.1 °F 29.88 in SW 7.0 mph 10.0 mph 91 % 0.00 in 0 W/m2
20:34 59.7 °F 56.8 °F 29.87 in SSW 5.0 mph 8.0 mph 90 % 0.00 in 0 W/m2
20:39 59.7 °F 56.8 °F 29.88 in SSW 6.0 mph 8.0 mph 90 % 0.00 in 0 W/m2
20:44 59.7 °F 56.8 °F 29.87 in SW 7.0 mph 11.0 mph 90 % 0.00 in 0 W/m2
20:49 59.7 °F 56.8 °F 29.87 in SSW 7.0 mph 11.0 mph 90 % 0.00 in 0 W/m2
20:54 59.7 °F 56.8 °F 29.87 in SSW 7.0 mph 9.0 mph 90 % 0.00 in 0 W/m2
20:59 59.7 °F 56.8 °F 29.86 in SSW 5.0 mph 8.0 mph 90 % 0.00 in 0 W/m2
21:04 59.5 °F 56.6 °F 29.86 in SSW 4.0 mph 8.0 mph 90 % 0.00 in 0 W/m2
21:09 59.5 °F 56.9 °F 29.86 in SW 5.0 mph 9.0 mph 91 % 0.00 in 0 W/m2
21:14 59.5 °F 56.9 °F 29.86 in SSW 5.0 mph 7.0 mph 91 % 0.00 in 0 W/m2
21:19 59.5 °F 56.9 °F 29.86 in SSW 5.0 mph 8.0 mph 91 % 0.00 in 0 W/m2
21:24 59.5 °F 56.9 °F 29.86 in SW 5.0 mph 9.0 mph 91 % 0.00 in 0 W/m2
21:29 59.4 °F 56.7 °F 29.86 in SSW 5.0 mph 7.0 mph 91 % 0.00 in 0 W/m2
21:34 59.4 °F 56.7 °F 29.86 in SSW 6.0 mph 9.0 mph 91 % 0.00 in 0 W/m2
21:39 59.4 °F 56.7 °F 29.86 in SSW 6.0 mph 9.0 mph 91 % 0.00 in 0 W/m2
21:44 59.4 °F 56.7 °F 29.86 in SSW 5.0 mph 7.0 mph 91 % 0.00 in 0 W/m2
21:49 59.2 °F 56.9 °F 29.86 in SSW 5.0 mph 8.0 mph 92 % 0.00 in 0 W/m2
21:54 59.2 °F 56.9 °F 29.86 in SSW 4.0 mph 8.0 mph 92 % 0.00 in 0 W/m2
21:59 59.2 °F 56.9 °F 29.86 in SSW 4.0 mph 6.0 mph 92 % 0.00 in 0 W/m2
22:04 59.0 °F 56.7 °F 29.85 in South 4.0 mph 7.0 mph 92 % 0.00 in 0 W/m2
22:09 59.0 °F 56.7 °F 29.85 in South 5.0 mph 9.0 mph 92 % 0.00 in 0 W/m2
22:14 59.0 °F 57.0 °F 29.84 in South 6.0 mph 10.0 mph 93 % 0.00 in 0 W/m2
22:19 59.2 °F 57.2 °F 29.85 in SSW 6.0 mph 10.0 mph 93 % 0.00 in 0 W/m2
22:24 59.2 °F 57.2 °F 29.84 in SSW 7.0 mph 10.0 mph 93 % 0.00 in 0 W/m2
22:29 59.2 °F 57.2 °F 29.84 in SW 8.0 mph 10.0 mph 93 % 0.00 in 0 W/m2
22:34 59.4 °F 57.6 °F 29.84 in SW 9.0 mph 16.0 mph 94 % 0.00 in 0 W/m2
22:39 59.5 °F 57.5 °F 29.84 in SSW 10.0 mph 16.0 mph 93 % 0.00 in 0 W/m2
22:45 59.9 °F 57.9 °F 29.84 in SW 13.0 mph 22.0 mph 93 % 0.00 in 0 W/m2
22:50 60.1 °F 57.7 °F 29.84 in SSW 8.0 mph 13.0 mph 92 % 0.00 in 0 W/m2
22:55 60.3 °F 57.9 °F 29.84 in SW 11.0 mph 19.0 mph 92 % 0.00 in 0 W/m2
23:00 60.4 °F 57.8 °F 29.84 in SW 11.0 mph 16.0 mph 91 % 0.00 in 0 W/m2
23:05 60.6 °F 57.7 °F 29.83 in SW 9.0 mph 14.0 mph 90 % 0.00 in 0 W/m2
23:10 60.6 °F 57.7 °F 29.84 in SSW 8.0 mph 13.0 mph 90 % 0.00 in 0 W/m2
23:15 60.8 °F 57.5 °F 29.84 in SW 12.0 mph 19.0 mph 89 % 0.00 in 0 W/m2
23:20 61.0 °F 57.7 °F 29.83 in SW 12.0 mph 19.0 mph 89 % 0.00 in 0 W/m2
23:25 61.2 °F 57.6 °F 29.83 in SW 12.0 mph 18.0 mph 88 % 0.00 in 0 W/m2
23:30 61.2 °F 57.6 °F 29.83 in SSW 15.0 mph 25.0 mph 88 % 0.00 in 0 W/m2
23:35 61.2 °F 57.6 °F 29.83 in SW 10.0 mph 16.0 mph 88 % 0.00 in 0 W/m2
23:40 61.2 °F 57.6 °F 29.83 in SW 12.0 mph 20.0 mph 88 % 0.00 in 0 W/m2
23:45 61.2 °F 57.3 °F 29.83 in SSW 12.0 mph 19.0 mph 87 % 0.00 in 0 W/m2
23:50 61.2 °F 57.3 °F 29.83 in SW 12.0 mph 24.0 mph 87 % 0.00 in 0 W/m2
23:55 61.2 °F 57.3 °F 29.83 in SW 13.0 mph 19.0 mph 87 % 0.00 in 0 W/m2
Delerius-Weather
Compliments of Weather Underground - 2.25 mb

Data updates at regular intervals.